createdAt,value
2022-09-24T00:00:15.991Z,13.51
2022-09-24T00:04:20.306Z,13.47
2022-09-24T00:08:23.209Z,13.41
2022-09-24T00:12:26.345Z,13.37
2022-09-24T00:16:31.818Z,13.28
2022-09-24T00:20:36.620Z,13.25
2022-09-24T00:24:57.356Z,13.34
2022-09-24T00:29:03.658Z,13.30
2022-09-24T00:33:06.853Z,13.26
2022-09-24T00:37:11.130Z,13.27
2022-09-24T00:41:13.984Z,13.28
2022-09-24T00:45:16.819Z,13.28
2022-09-24T00:49:20.652Z,13.24
2022-09-24T00:53:29.263Z,13.20
2022-09-24T00:57:32.992Z,13.20
2022-09-24T01:01:35.799Z,13.18
2022-09-24T01:05:39.451Z,13.19
2022-09-24T01:09:43.689Z,13.18
2022-09-24T01:14:37.990Z,13.19
2022-09-24T01:18:45.508Z,13.18
2022-09-24T01:23:04.481Z,13.11
2022-09-24T01:27:15.824Z,13.00
2022-09-24T01:31:23.890Z,12.86
2022-09-24T01:35:31.758Z,12.93
2022-09-24T01:39:37.795Z,12.79
2022-09-24T01:43:41.115Z,12.75
2022-09-24T01:47:45.982Z,12.84
2022-09-24T01:51:53.393Z,12.88
2022-09-24T01:56:01.762Z,12.91
2022-09-24T02:00:09.932Z,12.93
2022-09-24T02:04:17.671Z,12.93
2022-09-24T02:08:24.474Z,12.82
2022-09-24T02:12:34.009Z,12.65
2022-09-24T02:16:40.039Z,12.65
2022-09-24T02:20:45.646Z,12.65
2022-09-24T02:24:51.763Z,12.59
2022-09-24T02:28:54.714Z,12.60
2022-09-24T02:32:58.577Z,12.54
2022-09-24T02:37:07.563Z,12.50
2022-09-24T02:41:12.018Z,12.45
2022-09-24T02:45:14.829Z,12.39
2022-09-24T02:49:18.214Z,12.47
2022-09-24T02:53:23.041Z,12.46
2022-09-24T02:57:25.863Z,12.38
2022-09-24T03:01:28.764Z,12.44
2022-09-24T03:05:32.043Z,12.46
2022-09-24T03:09:36.163Z,12.41
2022-09-24T03:13:39.460Z,12.39
2022-09-24T03:17:42.320Z,12.51
2022-09-24T03:21:45.134Z,12.44
2022-09-24T03:25:49.417Z,12.40
2022-09-24T03:30:09.851Z,12.31
2022-09-24T03:34:12.781Z,12.28
2022-09-24T03:38:15.567Z,12.28
2022-09-24T03:42:19.763Z,12.29
2022-09-24T03:46:24.457Z,12.34
2022-09-24T03:50:27.382Z,12.36
2022-09-24T03:54:30.209Z,12.36
2022-09-24T03:58:36.311Z,12.42
2022-09-24T04:02:39.281Z,12.42
2022-09-24T04:06:42.179Z,12.43
2022-09-24T04:10:46.279Z,12.43
2022-09-24T04:14:50.870Z,12.44
2022-09-24T04:18:54.233Z,12.43
2022-09-24T04:22:59.289Z,12.48
2022-09-24T04:27:02.355Z,12.53
2022-09-24T04:31:06.817Z,12.52
2022-09-24T04:35:11.299Z,12.51
2022-09-24T04:39:14.202Z,12.49
2022-09-24T04:43:17.546Z,12.48
2022-09-24T04:47:24.415Z,12.44
2022-09-24T04:51:27.637Z,12.39
2022-09-24T04:55:32.383Z,12.37
2022-09-24T04:59:35.361Z,12.34
2022-09-24T05:03:39.835Z,12.32
2022-09-24T05:07:44.742Z,12.29
2022-09-24T05:11:47.562Z,12.26
2022-09-24T05:15:50.841Z,12.22
2022-09-24T05:19:57.969Z,12.15
2022-09-24T05:24:00.991Z,12.17
2022-09-24T05:28:03.900Z,12.17
2022-09-24T05:32:08.445Z,12.19
2022-09-24T05:36:12.895Z,12.19
2022-09-24T05:40:33.176Z,12.19
2022-09-24T05:44:37.516Z,12.15
2022-09-24T05:48:40.502Z,12.12
2022-09-24T05:52:44.638Z,12.13
2022-09-24T05:56:47.704Z,12.19
2022-09-24T06:00:50.762Z,12.20
2022-09-24T06:04:53.915Z,12.26
2022-09-24T06:08:58.424Z,12.33
2022-09-24T06:13:01.505Z,12.34
2022-09-24T06:17:04.586Z,12.41
2022-09-24T06:21:10.084Z,12.50
2022-09-24T06:25:14.538Z,12.51
2022-09-24T06:29:17.426Z,12.43
2022-09-24T06:33:20.909Z,12.55
2022-09-24T06:37:23.765Z,12.61
2022-09-24T06:41:28.409Z,12.79
2022-09-24T06:45:31.281Z,12.68
2022-09-24T06:49:34.734Z,12.65
2022-09-24T06:53:38.555Z,12.66
2022-09-24T06:57:43.005Z,12.70
2022-09-24T07:01:45.988Z,12.80
2022-09-24T07:05:49.255Z,12.88
2022-09-24T07:09:52.191Z,12.89
2022-09-24T07:13:56.394Z,12.99
2022-09-24T07:17:59.408Z,13.19
2022-09-24T07:22:02.412Z,13.27
2022-09-24T07:26:05.520Z,13.45
2022-09-24T07:30:11.706Z,13.45
2022-09-24T07:34:15.881Z,13.57
2022-09-24T07:38:20.450Z,13.60
2022-09-24T07:42:23.506Z,13.82
2022-09-24T07:46:27.843Z,14.10
2022-09-24T07:50:32.837Z,14.27
2022-09-24T07:54:35.657Z,14.50
2022-09-24T07:58:38.650Z,14.57
2022-09-24T08:02:42.841Z,14.83
2022-09-24T08:06:47.690Z,14.78
2022-09-24T08:10:51.001Z,14.88
2022-09-24T08:14:53.988Z,14.96
2022-09-24T08:18:58.281Z,15.12
2022-09-24T08:23:02.930Z,15.31
2022-09-24T08:27:05.890Z,15.55
2022-09-24T08:31:11.462Z,15.62
2022-09-24T08:35:16.606Z,15.70
2022-09-24T08:39:19.500Z,15.56
2022-09-24T08:43:41.294Z,15.75
2022-09-24T08:47:48.566Z,16.10
2022-09-24T08:52:03.236Z,16.82
2022-09-24T08:56:09.573Z,17.22
2022-09-24T09:00:16.213Z,18.45
2022-09-24T09:04:28.134Z,17.13
2022-09-24T09:09:01.830Z,18.14
2022-09-24T09:13:10.516Z,18.39
2022-09-24T09:17:24.710Z,17.66
2022-09-24T09:21:32.477Z,19.04
2022-09-24T09:25:37.611Z,18.16
2022-09-24T09:29:40.529Z,18.10
2022-09-24T09:34:08.900Z,18.98
2022-09-24T09:38:20.784Z,19.31
2022-09-24T09:42:36.513Z,18.03
2022-09-24T09:46:48.228Z,18.74
2022-09-24T09:50:55.153Z,20.03
2022-09-24T09:54:58.624Z,18.91
2022-09-24T09:59:10.078Z,18.80
2022-09-24T10:03:24.974Z,19.37
2022-09-24T10:07:28.020Z,19.47
2022-09-24T10:11:31.441Z,18.86
2022-09-24T10:15:45.401Z,18.63
2022-09-24T10:19:51.048Z,18.52
2022-09-24T10:24:01.764Z,18.22
2022-09-24T10:28:27.452Z,17.79
2022-09-24T10:32:31.899Z,17.87
2022-09-24T10:36:34.740Z,17.86
2022-09-24T10:40:41.771Z,17.32
2022-09-24T10:44:49.327Z,17.53
2022-09-24T10:49:04.940Z,17.80
2022-09-24T10:53:12.827Z,17.76
2022-09-24T10:57:27.016Z,17.87
2022-09-24T11:01:41.358Z,17.79
2022-09-24T11:05:53.949Z,18.22
2022-09-24T11:10:04.290Z,18.37
2022-09-24T11:14:20.042Z,17.89
2022-09-24T11:18:36.586Z,18.01
2022-09-24T11:22:55.347Z,18.83
2022-09-24T11:27:15.482Z,19.02
2022-09-24T11:31:27.447Z,18.73
2022-09-24T11:35:46.425Z,18.62
2022-09-24T11:40:08.692Z,18.73
2022-09-24T11:44:40.214Z,19.33
2022-09-24T11:48:58.960Z,19.18
2022-09-24T11:53:07.148Z,19.66
2022-09-24T11:57:19.869Z,18.17
2022-09-24T12:01:28.768Z,17.54
2022-09-24T12:05:39.207Z,18.17
2022-09-24T12:09:46.858Z,19.22
2022-09-24T12:13:55.978Z,19.92
2022-09-24T12:18:03.856Z,20.10
2022-09-24T12:22:07.276Z,19.85
2022-09-24T12:26:12.072Z,19.87
2022-09-24T12:30:45.459Z,19.32
2022-09-24T12:34:56.212Z,19.14
2022-09-24T12:39:07.165Z,18.79
2022-09-24T12:43:20.377Z,18.70
2022-09-24T12:47:28.140Z,19.67
2022-09-24T12:51:39.600Z,19.68
2022-09-24T12:55:47.158Z,19.51
2022-09-24T12:59:52.373Z,18.58
2022-09-24T13:04:06.725Z,18.76
2022-09-24T13:08:25.838Z,18.29
2022-09-24T13:12:33.941Z,18.37
2022-09-24T13:16:40.393Z,18.42
2022-09-24T13:20:49.938Z,18.88
2022-09-24T13:24:55.096Z,18.83
2022-09-24T13:29:00.949Z,18.33
2022-09-24T13:33:21.305Z,18.11
2022-09-24T13:37:33.023Z,17.82
2022-09-24T13:41:48.086Z,17.28
2022-09-24T13:45:51.306Z,17.64
2022-09-24T13:50:03.594Z,17.57
2022-09-24T13:54:18.085Z,17.41
2022-09-24T13:58:28.913Z,17.33
2022-09-24T14:02:38.981Z,17.09
2022-09-24T14:06:44.494Z,17.14
2022-09-24T14:10:51.672Z,17.19
2022-09-24T14:14:58.313Z,17.04
2022-09-24T14:19:06.062Z,17.13
2022-09-24T14:23:20.400Z,17.34
2022-09-24T14:27:26.446Z,17.24
2022-09-24T14:31:29.489Z,17.36
2022-09-24T14:35:34.489Z,17.26
2022-09-24T14:39:42.029Z,17.42
2022-09-24T14:43:50.834Z,17.21
2022-09-24T14:48:02.514Z,17.23
2022-09-24T14:52:06.047Z,17.22
2022-09-24T14:56:20.254Z,17.06
2022-09-24T15:00:26.522Z,17.21
2022-09-24T15:04:29.614Z,17.28
2022-09-24T15:08:32.584Z,17.05
2022-09-24T15:12:37.893Z,17.19
2022-09-24T15:16:43.254Z,17.13
2022-09-24T15:20:46.021Z,17.17
2022-09-24T15:24:48.936Z,17.08
2022-09-24T15:28:52.332Z,17.19
2022-09-24T15:32:57.413Z,17.05
2022-09-24T15:37:01.073Z,16.88
2022-09-24T15:41:05.439Z,16.69
2022-09-24T15:45:16.506Z,16.21
2022-09-24T15:49:22.459Z,15.78
2022-09-24T15:53:27.440Z,15.58
2022-09-24T15:57:31.685Z,15.41
2022-09-24T16:01:42.240Z,15.41
2022-09-24T16:05:47.091Z,15.16
2022-09-24T16:09:54.898Z,15.11
2022-09-24T16:13:58.129Z,15.09
2022-09-24T16:18:01.061Z,15.11
2022-09-24T16:22:05.938Z,14.91
2022-09-24T16:26:12.332Z,14.90
2022-09-24T16:30:15.268Z,14.85
2022-09-24T16:34:18.947Z,14.64
2022-09-24T16:38:23.449Z,14.59
2022-09-24T16:42:26.562Z,14.47
2022-09-24T16:46:29.360Z,14.46
2022-09-24T16:50:32.521Z,14.31
2022-09-24T16:54:37.183Z,14.21
2022-09-24T16:58:41.491Z,14.20
2022-09-24T17:02:44.411Z,14.17
2022-09-24T17:06:47.750Z,14.08
2022-09-24T17:10:56.953Z,14.06
2022-09-24T17:15:02.896Z,14.09
2022-09-24T17:19:08.269Z,14.00
2022-09-24T17:23:11.422Z,13.89
2022-09-24T17:27:15.731Z,13.85
2022-09-24T17:31:21.722Z,13.84
2022-09-24T17:35:25.045Z,13.82
2022-09-24T17:39:28.171Z,13.86
2022-09-24T17:43:33.300Z,13.82
2022-09-24T17:47:50.054Z,13.77
2022-09-24T17:51:52.963Z,13.76
2022-09-24T17:55:55.926Z,13.72
2022-09-24T18:00:00.380Z,13.71
2022-09-24T18:04:03.521Z,13.62
2022-09-24T18:08:07.398Z,13.58
2022-09-24T18:12:14.804Z,13.56
2022-09-24T18:16:27.108Z,13.57
2022-09-24T18:20:31.990Z,13.56
2022-09-24T18:24:34.820Z,13.59
2022-09-24T18:28:39.753Z,13.55
2022-09-24T18:32:47.329Z,13.49
2022-09-24T18:36:50.121Z,13.41
2022-09-24T18:40:53.079Z,13.36
2022-09-24T18:44:55.992Z,13.36
2022-09-24T18:49:02.334Z,13.39
2022-09-24T18:53:06.098Z,13.35
2022-09-24T18:57:09.227Z,13.34
2022-09-24T19:01:12.443Z,13.34
2022-09-24T19:05:16.701Z,13.36
2022-09-24T19:09:21.113Z,13.21
2022-09-24T19:13:26.365Z,13.16
2022-09-24T19:17:29.597Z,13.15
2022-09-24T19:21:33.910Z,13.21
2022-09-24T19:25:38.931Z,13.13
2022-09-24T19:29:43.200Z,13.07
2022-09-24T19:33:46.316Z,12.98
2022-09-24T19:37:50.697Z,12.95
2022-09-24T19:41:53.654Z,12.96
2022-09-24T19:45:58.256Z,12.93
2022-09-24T19:50:01.370Z,12.89
2022-09-24T19:54:08.353Z,12.82
2022-09-24T19:58:11.807Z,12.78
2022-09-24T20:02:15.303Z,12.77
2022-09-24T20:06:20.125Z,12.72
2022-09-24T20:10:25.284Z,12.77
2022-09-24T20:14:31.471Z,12.77
2022-09-24T20:18:36.897Z,12.76
2022-09-24T20:22:39.778Z,12.79
2022-09-24T20:27:01.519Z,12.75
2022-09-24T20:31:11.033Z,12.72
2022-09-24T20:35:15.939Z,12.72
2022-09-24T20:39:19.328Z,12.71
2022-09-24T20:43:24.179Z,12.71
2022-09-24T20:47:27.998Z,12.71
2022-09-24T20:51:33.841Z,12.69
2022-09-24T20:55:36.922Z,12.66
2022-09-24T20:59:41.198Z,12.70
2022-09-24T21:03:45.546Z,12.70
2022-09-24T21:07:48.871Z,12.72
2022-09-24T21:11:53.275Z,12.71
2022-09-24T21:16:01.830Z,12.69
2022-09-24T21:20:07.042Z,12.71
2022-09-24T21:24:14.081Z,12.83
2022-09-24T21:28:16.879Z,12.78
2022-09-24T21:32:21.520Z,12.77
2022-09-24T21:36:28.787Z,12.81
2022-09-24T21:40:31.756Z,12.81
2022-09-24T21:44:34.584Z,12.77
2022-09-24T21:48:38.894Z,12.78
2022-09-24T21:52:43.786Z,12.83
2022-09-24T21:56:47.905Z,12.85
2022-09-24T22:00:51.141Z,12.87
2022-09-24T22:04:55.661Z,12.81
2022-09-24T22:09:03.709Z,12.84
2022-09-24T22:13:08.363Z,12.85
2022-09-24T22:17:11.343Z,12.82
2022-09-24T22:21:16.923Z,12.79
2022-09-24T22:25:19.961Z,12.84
2022-09-24T22:29:23.081Z,12.83
2022-09-24T22:33:45.183Z,12.84
2022-09-24T22:37:51.180Z,12.84
2022-09-24T22:41:55.797Z,12.81
2022-09-24T22:45:59.082Z,12.85
2022-09-24T22:50:02.149Z,12.89
2022-09-24T22:54:07.647Z,12.84
2022-09-24T22:58:10.457Z,12.83
2022-09-24T23:02:13.602Z,12.87
2022-09-24T23:06:17.931Z,12.86
2022-09-24T23:10:22.257Z,12.82
2022-09-24T23:14:25.392Z,12.80
2022-09-24T23:18:28.297Z,12.82
2022-09-24T23:22:31.261Z,12.81
2022-09-24T23:26:35.806Z,12.79
2022-09-24T23:30:38.817Z,12.73
2022-09-24T23:34:42.501Z,12.72
2022-09-24T23:38:46.133Z,12.73
2022-09-24T23:42:51.122Z,12.66
2022-09-24T23:46:54.389Z,12.72
2022-09-24T23:50:58.680Z,12.63
2022-09-24T23:55:01.506Z,12.63
2022-09-24T23:59:05.875Z,12.58
